»·PEaware :: DAL2112 KSLC-KLAS

DAL2112 :: KSLC-KLAS

FLIGHT INFORMATION

Flight Status: Arrived
Operator:
Delta Air Lines
More flights by this operator :: More flights under this callsign
Pilot: Anonymous 14167 (14167)
Aircraft: BOEING 737-800
(B738)
More flights by this aircraft type
Origin: KSLC Salt Lake City Intl
United States
Destination: KLAS McCarran Intl
United States
More flights between these airports :: More routes between these airports
Route: +EDETH5 MLF MPIRE SITEE2
File this flight plan on PilotEdge
Remarks:
Altitude:
(Current/Filed)
32,000ft
Speed:
(Current/Filed)
462kts
Departed: 24-Nov-17 01:46 PM
Arrived: 24-Nov-17 02:46 PM
Distance/Time
Traveled:
319nm/1:00
Distance/Time
To Go:
Arrived

Flight Plot

Page will automatically refresh every two minutes.

Flight plan parsing failed; only flown route is shown


Map Options




Map Legend


Flown Route
Filed Route
Departure Airport
Arrival Airport
Navaid (VOR, NDB)
Fix

Horizontal Profiles

Position Reports

Time Latitude Longitude Heading Altitude Ground
Speed
24-Nov-17 13:17 40.788502 -111.980741 282 4234ft 0kts
24-Nov-17 13:18 40.788502 -111.980741 282 4234ft 0kts
24-Nov-17 13:25 40.788502 -111.980741 282 4234ft 0kts
24-Nov-17 13:26 40.788502 -111.980741 282 4234ft 0kts
24-Nov-17 13:27 40.788502 -111.980741 282 4234ft 0kts
24-Nov-17 13:28 40.788502 -111.980741 282 4234ft 0kts
24-Nov-17 13:29 40.788502 -111.980741 282 4234ft 0kts
24-Nov-17 13:30 40.788502 -111.980741 283 4234ft 0kts
24-Nov-17 13:31 40.788502 -111.980741 283 4234ft 0kts
24-Nov-17 13:32 40.788502 -111.980741 283 4234ft 0kts
24-Nov-17 13:33 40.788502 -111.980741 283 4234ft 0kts
24-Nov-17 13:34 40.788502 -111.980741 283 4234ft 0kts
24-Nov-17 13:35 40.788502 -111.980741 283 4234ft 0kts
24-Nov-17 13:36 40.788502 -111.980741 283 4234ft 0kts
24-Nov-17 13:37 40.788501 -111.980736 283 4235ft 0kts
24-Nov-17 13:38 40.788376 -111.980021 304 4235ft 1kts
24-Nov-17 13:39 40.788798 -111.979775 14 4235ft 7kts
24-Nov-17 13:40 40.790935 -111.979479 357 4235ft 7kts
24-Nov-17 13:41 40.791343 -111.979521 354 4235ft 0kts
24-Nov-17 13:42 40.791343 -111.979521 354 4235ft 0kts
24-Nov-17 13:43 40.791669 -111.979462 27 4235ft 4kts
24-Nov-17 13:44 40.791351 -111.977240 172 4235ft 9kts
24-Nov-17 13:45 40.788299 -111.976866 175 4235ft 12kts
24-Nov-17 13:46 40.784207 -111.976423 174 4234ft 14kts
24-Nov-17 13:47 40.780119 -111.975894 174 4235ft 14kts
24-Nov-17 13:48 40.777382 -111.975059 177 4234ft 5kts
24-Nov-17 13:49 40.774727 -111.974782 150 4234ft 5kts
24-Nov-17 13:50 40.776009 -111.973286 354 4235ft 14kts
24-Nov-17 13:51 40.803947 -111.976736 353 4566ft 160kts
24-Nov-17 13:52 40.828713 -112.014681 271 6519ft 183kts
24-Nov-17 13:53 40.829122 -112.092823 272 7634ft 261kts
24-Nov-17 13:54 40.814365 -112.193522 258 10423ft 296kts
24-Nov-17 13:55 40.756751 -112.269694 208 13380ft 322kts
24-Nov-17 13:56 40.665142 -112.295439 194 15904ft 363kts
24-Nov-17 13:57 40.562758 -112.312139 196 19017ft 381kts
24-Nov-17 13:58 40.456933 -112.334225 199 22006ft 394kts
24-Nov-17 13:59 40.347785 -112.357577 205 24641ft 399kts
24-Nov-17 14:00 40.254251 -112.414401 212 27074ft 400kts
24-Nov-17 14:01 40.159791 -112.450897 210 29671ft 395kts
24-Nov-17 14:02 40.084545 -112.520290 244 31912ft 325kts
24-Nov-17 14:03 40.004570 -112.592364 223 32137ft 380kts
24-Nov-17 14:04 39.909252 -112.658967 221 32120ft 414kts
24-Nov-17 14:05 39.808781 -112.729093 221 32106ft 418kts
24-Nov-17 14:06 39.706942 -112.800385 222 32105ft 417kts
24-Nov-17 14:07 39.586244 -112.833223 200 32106ft 460kts
24-Nov-17 14:08 39.459433 -112.852023 200 32106ft 461kts
24-Nov-17 14:09 39.335869 -112.870402 200 32106ft 461kts
24-Nov-17 14:10 39.209362 -112.889224 200 32107ft 461kts
24-Nov-17 14:11 39.082050 -112.907857 200 32107ft 462kts
24-Nov-17 14:12 38.955229 -112.926370 200 32108ft 462kts
24-Nov-17 14:13 38.829920 -112.944667 200 32101ft 462kts
24-Nov-17 14:14 38.703701 -112.963077 198 32063ft 446kts
24-Nov-17 14:15 38.580547 -112.981085 198 32076ft 449kts
24-Nov-17 14:16 38.456828 -112.999148 198 32075ft 449kts
24-Nov-17 14:17 38.336683 -113.028337 214 32086ft 423kts
24-Nov-17 14:18 38.231569 -113.091801 216 32074ft 420kts
24-Nov-17 14:19 38.126328 -113.155817 216 32072ft 419kts
24-Nov-17 14:20 38.021524 -113.219599 216 32072ft 420kts
24-Nov-17 14:21 37.916459 -113.283556 216 32098ft 420kts
24-Nov-17 14:22 37.812535 -113.346839 216 32095ft 420kts
24-Nov-17 14:23 37.707536 -113.410799 216 32094ft 421kts
24-Nov-17 14:24 37.602507 -113.474800 216 32093ft 420kts
24-Nov-17 14:25 37.497627 -113.538079 215 32092ft 422kts
24-Nov-17 14:26 37.391804 -113.600739 215 32092ft 422kts
24-Nov-17 14:27 37.289117 -113.661435 215 32023ft 399kts
24-Nov-17 14:28 37.196995 -113.715968 216 30801ft 353kts
24-Nov-17 14:29 37.107975 -113.768851 215 29046ft 362kts
24-Nov-17 14:30 37.016209 -113.823233 214 27220ft 369kts
24-Nov-17 14:31 36.922829 -113.878602 214 25363ft 376kts
24-Nov-17 14:32 36.831902 -113.932499 213 23547ft 367kts
24-Nov-17 14:33 36.741120 -113.986361 213 21739ft 360kts
24-Nov-17 14:34 36.652287 -114.039096 210 19966ft 345kts
24-Nov-17 14:35 36.571747 -114.097566 233 18332ft 331kts
24-Nov-17 14:36 36.521651 -114.189898 240 16618ft 320kts
24-Nov-17 14:37 36.474363 -114.282057 240 15037ft 316kts
24-Nov-17 14:38 36.427710 -114.373117 240 13468ft 305kts
24-Nov-17 14:39 36.384282 -114.458013 240 12006ft 283kts
24-Nov-17 14:40 36.342085 -114.539935 240 11975ft 284kts
24-Nov-17 14:41 36.298437 -114.621283 227 11960ft 287kts
24-Nov-17 14:42 36.223276 -114.659872 200 10618ft 308kts
24-Nov-17 14:43 36.150074 -114.691498 200 8269ft 279kts
24-Nov-17 14:44 36.088892 -114.740839 240 6869ft 269kts
24-Nov-17 14:45 36.074062 -114.828203 269 5478ft 259kts
24-Nov-17 14:46 36.073676 -114.912098 269 4958ft 228kts
24-Nov-17 14:47 36.073719 -114.984828 270 4995ft 193kts
24-Nov-17 14:48 36.073724 -115.045329 270 3481ft 168kts
24-Nov-17 14:49 36.073483 -115.097541 269 2563ft 145kts
24-Nov-17 14:50 36.073632 -115.140128 269 2149ft 61kts
24-Nov-17 14:51 36.074668 -115.145932 298 2148ft 0kts
24-Nov-17 14:52 36.074799 -115.146172 309 2149ft 1kts
24-Nov-17 14:53 36.076527 -115.146589 0 2149ft 19kts
24-Nov-17 14:54 36.078433 -115.146811 74 2148ft 4kts
24-Nov-17 14:55 36.078223 -115.141663 90 2149ft 19kts
24-Nov-17 14:56 36.079646 -115.138692 14 2148ft 5kts
24-Nov-17 14:57 36.080418 -115.138859 345 2148ft 0kts
24-Nov-17 14:58 36.080418 -115.138859 345 2148ft 0kts
24-Nov-17 14:59 36.080418 -115.138859 345 2148ft 0kts

Navigation Log

Ident Type
Flight plan parsing failed, navigation log unavailable